Terminal Aerodrome Forecast
Issued by NWS Nashville, TN

Home | Current Version | Previous Version | Text Only | Print | Product List | Glossary On
Versions: 1 2 3 4 5 6 7 8 9 10 11 12 13 14 15 16 17
000
FTUS44 KOHX 250500
TAFBNA
TAF
KBNA 250520Z 2506/2606 17010KT P6SM SCT050 BKN100
     FM251200 18010G16KT P6SM VCSH OVC040
      TEMPO 2514/2518 3SM SHRA OVC025
     FM251800 18010G18KT P6SM VCSH BKN040 PROB30 2518/2524 3SM TSRA
      OVC015CB=

USA.gov is the U.S. government's official web portal to all federal, state and local government web resources and services.